Busby, Montana
Current Conditions -  °F | °C
As of 2:53 PM on Friday 28 Nov 2014 (Local Time) from KSHR Reporting Station
Clear Clear  
Wind Chill: 63°   Ceiling: Unl
Heat Index: 63°   Visibility: 10mi
Dew Point: 20°   Wind: 13mph
Humidity: 19%   Direction: 250°WSW
Pressure: 29.57"   Gusts: 23mph
Location:  45.54°N, 106.96°W
Report Text: KSHR 282153Z AUTO 25011G20KT 10SM CLR 17/M07 A2957 RMK AO2 PK WND 26036/2108 SLP995 T01721067 TSNO
Loading
Personal Weather Stations






























Interactive Weather Map New forecast layout! Learn more

10-Day Weather Forecast

Advertisements
Track Severe Weather on mobile